Artesia ASC Data

Date Time Air Temperature Relative Humidity Dewpoint Windchill Heat Index Wind Speed Wind Dir. Rain Solar Radiation Soil Temperature
2m 2m 3m 3m 10cm
US/Mountain F % F F F MPH deg in MJ/m^2 F
max avg avg
2021-04-08 00:05:00 56.8 13.6 7.4 56.8 56.8 2.8 4.7 2.9 40.6 11.6 0.00 0.0000000 67.6
2021-04-08 00:10:00 57.2 12.7 6.2 57.2 57.2 4.4 4.4 3.0 334.4 353.0 0.00 0.0000000 67.5
2021-04-08 00:15:00 55.4 15.1 8.7 55.4 55.4 4.6 5.1 4.2 331.2 329.0 0.00 0.0000000 67.4
2021-04-08 00:20:00 53.3 20.8 14.1 53.3 53.3 4.2 6.3 4.9 307.4 322.8 0.00 0.0000000 67.3
2021-04-08 00:25:00 52.7 16.9 8.9 52.7 52.7 0.0 4.7 2.8 169.9 282.0 0.00 0.0000000 67.2
2021-04-08 00:30:00 51.8 19.3 11.2 51.8 51.8 1.3 1.3 0.1 272.7 270.2 0.00 0.0000000 67.2
2021-04-08 00:35:00 52.9 22.9 15.9 52.9 52.9 2.2 3.5 2.5 318.4 292.7 0.00 0.0000000 67.1
2021-04-08 00:40:00 54.7 13.2 5.0 54.7 54.7 2.2 3.3 2.4 65.7 19.4 0.00 0.0000000 67.0
2021-04-08 00:45:00 53.0 20.8 13.9 53.0 53.0 1.7 3.3 2.3 98.8 104.5 0.00 0.0000000 66.9
2021-04-08 00:50:00 53.0 13.0 3.4 53.0 53.0 1.2 2.8 1.5 342.3 41.5 0.00 0.0000000 66.8
2021-04-08 00:55:00 52.9 26.8 19.6 52.9 52.9 1.5 2.4 1.8 348.5 358.7 0.00 0.0000000 66.7
2021-04-08 01:00:00 52.1 22.9 15.3 52.1 52.1 1.3 3.0 2.2 348.8 0.7 0.00 0.0000000 66.7
2021-04-08 01:05:00 51.7 21.0 13.0 51.7 51.7 1.5 2.4 1.6 0.2 7.8 0.00 0.0000000 66.6
2021-04-08 01:10:00 50.9 23.8 15.2 50.9 50.9 4.2 4.2 2.5 324.8 343.8 0.00 0.0000000 66.5
2021-04-08 01:15:00 51.2 18.8 10.0 51.2 51.2 4.2 4.6 3.3 344.9 342.2 0.00 0.0000000 66.4
2021-04-08 01:20:00 50.7 15.2 4.9 50.7 50.7 1.3 6.5 4.2 346.0 347.3 0.00 0.0000000 66.3
2021-04-08 01:25:00 52.7 15.9 7.6 52.7 52.7 3.0 5.8 3.6 334.6 336.5 0.00 0.0000000 66.3
2021-04-08 01:30:00 53.9 14.2 6.0 53.9 53.9 3.3 6.7 3.6 6.2 355.4 0.00 0.0000000 66.2
2021-04-08 01:35:00 54.4 16.0 9.2 54.4 54.4 3.0 4.7 3.5 4.6 357.8 0.00 0.0000000 66.1
2021-04-08 01:40:00 53.3 17.4 10.1 53.3 53.3 3.3 4.9 3.3 345.3 344.0 0.00 0.0000000 66.1
2021-04-08 01:45:00 52.4 20.4 12.9 52.4 52.4 3.7 4.0 2.9 328.0 345.2 0.00 0.0000000 66.0
2021-04-08 01:50:00 52.1 23.3 15.6 52.1 52.1 3.0 4.4 3.5 306.6 326.5 0.00 0.0000000 65.9
2021-04-08 01:55:00 51.2 24.1 15.7 51.2 51.2 3.0 3.1 2.7 305.0 315.4 0.00 0.0000000 65.8
2021-04-08 02:00:00 50.9 29.1 19.8 50.9 50.9 1.5 3.0 1.7 264.6 300.8 0.00 0.0000000 65.7
2021-04-08 02:05:00 49.6 21.6 11.8 49.6 49.6 2.8 3.0 2.1 285.5 267.6 0.00 0.0000000 65.7
2021-04-08 02:10:00 49.6 26.4 16.4 47.7 49.6 5.1 5.6 4.2 306.7 312.4 0.00 0.0000000 65.6
2021-04-08 02:15:00 48.6 22.7 12.1 47.6 48.6 3.5 5.3 3.7 261.7 281.8 0.00 0.0000000 65.5
2021-04-08 02:20:00 47.9 29.4 17.4 46.2 47.9 4.2 5.3 4.3 282.1 280.8 0.00 0.0000000 65.5
2021-04-08 02:25:00 48.8 29.0 17.9 46.7 48.8 5.1 5.6 4.7 293.4 300.2 0.00 0.0000000 65.4
2021-04-08 02:30:00 48.4 26.8 15.7 46.7 48.4 4.4 6.7 5.4 286.4 295.2 0.00 0.0000000 65.3
2021-04-08 02:35:00 48.1 30.6 18.6 45.9 48.1 5.1 6.0 4.8 314.5 300.1 0.00 0.0000000 65.3
2021-04-08 02:40:00 48.8 26.2 15.6 46.7 48.8 5.1 6.5 5.0 289.8 301.2 0.00 0.0000000 65.2
2021-04-08 02:45:00 47.9 30.6 18.4 45.2 47.9 6.0 6.7 5.8 293.6 286.6 0.00 0.0000000 65.1
2021-04-08 02:50:00 48.5 26.3 15.4 45.7 48.5 6.3 6.3 5.3 296.6 298.7 0.00 0.0000000 65.0
2021-04-08 02:55:00 49.4 25.8 15.8 46.5 49.4 6.9 7.1 6.3 298.8 299.7 0.00 0.0000000 65.0
2021-04-08 03:00:00 49.8 29.0 18.8 48.9 49.8 3.7 7.4 5.5 280.1 299.2 0.00 0.0000000 64.9
2021-04-08 03:05:00 49.7 25.6 15.9 48.4 49.7 4.2 5.1 4.2 293.5 289.4 0.00 0.0000000 64.9
2021-04-08 03:10:00 49.7 28.4 18.2 49.7 49.7 2.8 4.6 3.6 286.4 283.0 0.00 0.0000000 64.8
2021-04-08 03:15:00 49.3 28.0 17.5 46.6 49.3 6.3 6.3 3.8 286.7 292.3 0.00 0.0000000 64.7
2021-04-08 03:20:00 48.1 31.9 19.6 45.5 48.1 5.8 6.2 5.4 297.2 297.8 0.00 0.0000000 64.7
2021-04-08 03:25:00 47.5 29.2 16.9 44.1 47.5 7.1 7.1 6.0 297.8 303.7 0.00 0.0000000 64.6
2021-04-08 03:30:00 46.9 32.5 18.9 44.1 46.9 5.6 7.1 5.9 303.9 307.0 0.00 0.0000000 64.5
2021-04-08 03:35:00 46.5 30.2 16.8 43.6 46.5 5.8 6.2 5.6 293.2 301.8 0.00 0.0000000 64.5
2021-04-08 03:40:00 46.0 27.1 13.9 43.4 46.0 5.1 6.3 5.4 310.0 305.1 0.00 0.0000000 64.4
2021-04-08 03:45:00 46.0 30.5 16.6 43.5 46.0 5.1 6.0 5.3 315.7 301.3 0.00 0.0000000 64.4
2021-04-08 03:50:00 45.7 29.2 15.4 42.7 45.7 5.6 6.0 5.2 317.2 316.3 0.00 0.0000000 64.3
2021-04-08 03:55:00 45.1 27.7 13.7 42.2 45.1 5.5 6.0 5.2 336.3 326.2 0.00 0.0000000 64.2
2021-04-08 04:00:00 44.3 30.0 14.8 40.8 44.3 6.2 7.2 6.1 328.7 328.6 0.00 0.0000000 64.2
2021-04-08 04:05:00 44.2 32.3 16.3 41.0 44.2 5.5 6.9 6.0 316.3 323.4 0.00 0.0000000 64.1
2021-04-08 04:10:00 44.0 29.8 14.3 40.9 44.0 5.3 6.7 5.9 323.3 323.8 0.00 0.0000000 64.0
2021-04-08 04:15:00 44.4 30.4 15.1 40.4 44.4 7.1 7.8 6.3 317.9 314.0 0.00 0.0000000 64.0
2021-04-08 04:20:00 44.5 26.9 12.5 40.6 44.5 6.7 8.1 7.0 316.3 317.9 0.00 0.0000000 63.9
2021-04-08 04:25:00 44.6 31.7 16.3 40.9 44.6 6.7 9.0 6.8 303.0 314.4 0.00 0.0000000 63.9
2021-04-08 04:30:00 44.7 29.3 14.6 40.7 44.7 7.1 7.1 6.4 316.4 311.5 0.00 0.0000000 63.8
2021-04-08 04:35:00 44.3 25.4 11.0 40.9 44.3 5.8 7.1 5.9 341.1 316.3 0.00 0.0000000 63.8
2021-04-08 04:40:00 44.2 22.8 8.5 40.8 44.2 5.8 6.7 6.0 326.7 329.1 0.00 0.0000000 63.7
2021-04-08 04:45:00 45.1 19.4 5.6 41.6 45.1 6.3 6.3 5.6 338.4 332.5 0.00 0.0000000 63.6
2021-04-08 04:50:00 47.0 25.6 13.5 44.5 47.0 5.3 6.7 5.6 333.4 335.1 0.00 0.0000000 63.6
2021-04-08 04:55:00 44.6 24.9 10.8 42.7 44.6 3.8 6.3 4.7 264.7 266.2 0.00 0.0000000 63.5
2021-04-08 05:00:00 43.6 26.9 11.7 40.9 43.6 4.7 4.7 4.0 340.3 319.2 0.00 0.0000000 63.5
2021-04-08 05:05:00 44.1 30.2 14.7 44.1 44.1 2.6 4.7 3.4 263.5 309.2 0.00 0.0000000 63.4
2021-04-08 05:10:00 43.2 23.4 8.2 43.2 43.2 0.0 2.6 1.0 16.4 238.8 0.00 0.0000000 63.4
2021-04-08 05:15:00 44.2 27.9 13.1 44.2 44.2 0.8 2.2 1.7 5.6 337.8 0.00 0.0000000 63.3
2021-04-08 05:20:00 44.6 33.6 17.7 43.3 44.6 3.3 3.3 1.7 292.2 298.7 0.00 0.0000000 63.2
2021-04-08 05:25:00 44.8 24.6 10.7 44.8 44.8 3.0 3.5 3.1 339.1 315.5 0.00 0.0000000 63.2
2021-04-08 05:30:00 45.4 27.4 13.7 45.4 45.4 1.2 3.1 2.0 243.1 315.7 0.00 0.0000000 63.1
2021-04-08 05:35:00 43.9 27.4 12.4 43.9 43.9 0.0 1.9 1.2 325.6 259.5 0.00 0.0000000 63.1
2021-04-08 05:40:00 43.9 29.5 14.1 43.9 43.9 2.6 3.0 1.3 315.2 315.6 0.00 0.0000000 63.0
2021-04-08 05:45:00 43.7 31.7 15.6 43.7 43.7 0.0 2.4 0.6 227.6 307.5 0.00 0.0000000 63.0
2021-04-08 05:50:00 42.9 29.3 13.0 42.9 42.9 1.0 1.0 0.1 278.9 265.9 0.00 0.0000000 62.9
2021-04-08 05:55:00 42.1 33.0 15.1 38.2 42.1 6.2 6.2 3.5 281.8 267.1 0.00 0.0000000 62.8
2021-04-08 06:00:00 41.3 35.0 15.7 38.0 41.3 4.9 6.2 4.7 313.0 299.3 0.00 0.0000000 62.8
2021-04-08 06:05:00 43.3 26.8 11.4 41.3 43.3 3.8 4.6 3.8 326.0 326.9 0.00 0.0000000 62.7
2021-04-08 06:10:00 44.3 29.2 14.1 43.1 44.3 3.1 3.8 3.4 327.6 323.6 0.00 0.0000000 62.7
2021-04-08 06:15:00 44.6 25.1 11.0 44.6 44.6 3.0 3.3 2.9 327.8 321.2 0.00 0.0000000 62.6
2021-04-08 06:20:00 44.2 17.7 2.9 44.2 44.2 1.0 3.0 2.2 31.5 345.2 0.00 0.0000000 62.6
2021-04-08 06:25:00 44.2 19.2 4.7 44.2 44.2 2.1 2.4 2.0 347.3 18.3 0.00 0.0010000 62.5
2021-04-08 06:30:00 43.6 22.8 8.0 41.8 43.6 3.7 3.8 2.8 349.4 334.0 0.00 0.0020000 62.5
2021-04-08 06:35:00 43.4 16.5 0.8 43.4 43.4 2.1 3.7 2.6 345.7 6.1 0.00 0.0040000 62.4
2021-04-08 06:40:00 42.8 34.3 16.6 42.8 42.8 2.6 3.7 3.1 323.9 328.6 0.00 0.0090000 62.3
2021-04-08 06:45:00 42.4 22.1 6.3 42.4 42.4 1.7 4.2 3.0 1.4 353.5 0.00 0.0160000 62.3
2021-04-08 06:50:00 42.8 21.5 5.9 42.8 42.8 2.8 3.0 2.0 15.4 16.7 0.00 0.0290000 62.3
2021-04-08 06:55:00 43.3 34.7 17.2 43.3 43.3 0.8 3.1 1.3 304.0 334.2 0.00 0.0400000 62.2
2021-04-08 07:00:00 43.3 22.1 7.1 43.3 43.3 2.1 2.8 1.6 323.4 6.4 0.00 0.0400000 62.1
2021-04-08 07:05:00 42.6 32.4 15.1 42.6 42.6 2.2 3.5 2.9 342.3 322.4 0.00 0.0710000 62.1
2021-04-08 07:10:00 42.7 27.4 11.4 42.7 42.7 1.7 2.6 1.9 7.8 335.9 0.00 0.0820000 62.1
2021-04-08 07:15:00 43.9 34.6 17.7 43.9 43.9 3.0 3.7 2.0 306.5 320.6 0.00 0.1130000 62.0
2021-04-08 07:20:00 43.6 42.6 22.4 43.6 43.6 3.0 3.5 2.8 287.5 288.4 0.00 0.1360000 62.0
2021-04-08 07:25:00 44.9 29.7 15.1 44.9 44.9 2.6 3.1 2.4 264.7 266.6 0.00 0.1480000 61.9
2021-04-08 07:30:00 46.4 29.3 16.1 45.5 46.4 3.1 3.5 2.5 266.9 260.8 0.00 0.1590000 61.8
2021-04-08 07:35:00 47.7 32.1 19.3 46.3 47.7 3.8 5.6 4.0 307.0 294.2 0.00 0.1700000 61.8
2021-04-08 07:40:00 48.3 31.5 19.4 48.3 48.3 2.1 4.4 3.3 314.8 317.1 0.00 0.1800000 61.8
2021-04-08 07:45:00 49.3 31.4 20.3 48.2 49.3 3.8 3.8 2.7 308.9 312.5 0.00 0.1960000 61.7
2021-04-08 07:50:00 50.3 33.0 22.2 50.3 50.3 5.3 5.3 4.1 276.5 286.6 0.00 0.2130000 61.7
2021-04-08 07:55:00 51.6 30.4 21.4 51.6 51.6 4.0 5.3 4.1 287.4 277.8 0.00 0.2290000 61.6
2021-04-08 08:00:00 52.4 31.3 22.8 52.4 52.4 4.2 5.3 4.4 265.1 275.0 0.00 0.2460000 61.6
2021-04-08 08:05:00 53.2 31.8 23.9 53.2 53.2 4.4 4.9 3.5 293.9 294.4 0.00 0.2630000 61.6
2021-04-08 08:10:00 54.4 31.1 24.5 54.4 54.4 4.2 5.3 4.1 314.3 297.7 0.00 0.2790000 61.5
2021-04-08 08:15:00 55.3 32.1 26.0 55.3 55.3 2.6 4.7 3.7 5.2 308.2 0.00 0.2960000 61.5
2021-04-08 08:20:00 57.2 20.7 17.2 57.2 57.2 3.7 6.5 4.3 16.3 345.2 0.00 0.3130000 61.4
2021-04-08 08:25:00 55.9 22.4 17.9 55.9 55.9 4.7 6.0 4.3 41.9 42.5 0.00 0.3300000 61.4
2021-04-08 08:30:00 55.7 21.5 16.9 55.7 55.7 2.1 4.6 3.2 59.8 67.8 0.00 0.3470000 61.4
2021-04-08 08:35:00 56.9 22.1 18.5 56.9 56.9 2.2 3.1 2.1 13.0 69.5 0.00 0.3640000 61.4
2021-04-08 08:40:00 58.1 20.8 18.1 58.1 58.1 1.5 3.3 2.3 2.8 29.6 0.00 0.3800000 61.4
2021-04-08 08:45:00 59.1 17.6 15.0 59.1 59.1 1.7 3.8 2.2 33.3 16.1 0.00 0.3980000 61.3
2021-04-08 08:50:00 59.5 18.3 16.3 59.5 59.5 2.8 4.9 3.2 341.2 353.9 0.00 0.4150000 61.3
2021-04-08 08:55:00 60.0 16.2 13.8 60.0 60.0 3.5 4.2 3.4 45.0 358.6 0.00 0.4320000 61.3
2021-04-08 09:00:00 60.7 15.6 13.7 60.7 60.7 3.8 4.7 3.6 61.4 18.8 0.00 0.4490000 61.3
2021-04-08 09:05:00 60.7 16.7 15.2 60.7 60.7 3.5 6.3 4.2 27.8 51.9 0.00 0.4650000 61.3
2021-04-08 09:10:00 61.2 17.5 16.7 61.2 61.2 3.7 3.7 2.6 18.2 73.5 0.00 0.4810000 61.3
2021-04-08 09:15:00 62.8 16.6 16.7 62.8 62.8 1.0 2.8 0.9 91.6 16.8 0.00 0.4980000 61.3
2021-04-08 09:20:00 64.5 20.8 23.5 64.5 64.5 3.1 3.7 1.3 119.1 84.8 0.00 0.5120000 61.3
2021-04-08 09:25:00 62.8 22.9 24.3 62.8 62.8 2.4 3.7 2.8 123.1 139.9 0.00 0.5290000 61.2
2021-04-08 09:30:00 63.5 19.7 21.3 63.5 63.5 0.8 2.6 1.6 138.4 149.8 0.00 0.5450000 61.2
2021-04-08 09:35:00 65.9 15.4 17.5 65.9 65.9 2.4 2.4 0.8 331.4 354.0 0.00 0.5600000 61.2
2021-04-08 09:40:00 66.0 15.9 18.4 66.0 66.0 3.8 4.4 2.5 329.3 348.0 0.00 0.5760000 61.2
2021-04-08 09:45:00 66.5 13.8 15.5 66.5 66.5 3.5 6.2 3.2 6.6 348.4 0.00 0.5900000 61.3
2021-04-08 09:50:00 65.2 16.8 19.0 65.2 65.2 4.2 5.1 4.2 320.0 343.5 0.00 0.6040000 61.3
2021-04-08 09:55:00 66.3 13.5 14.7 66.3 66.3 3.1 4.9 3.4 89.5 27.5 0.00 0.6180000 61.3
2021-04-08 10:00:00 68.2 13.2 15.8 68.2 68.2 2.8 3.3 1.6 48.9 105.9 0.00 0.6330000 61.3
2021-04-08 10:05:00 70.6 14.2 19.4 70.6 70.6 3.0 3.5 1.7 86.3 89.0 0.00 0.6500000 61.3
2021-04-08 10:10:00 68.7 12.6 15.2 68.7 68.7 2.6 5.5 4.0 82.6 86.5 0.00 0.6620000 61.3
2021-04-08 10:15:00 68.6 12.0 13.9 68.6 68.6 3.3 6.0 3.7 88.3 103.6 0.00 0.6600000 61.4
2021-04-08 10:20:00 68.4 10.1 10.0 68.4 68.4 6.2 6.9 4.4 67.2 77.8 0.00 0.6890000 61.4
2021-04-08 10:25:00 69.8 12.3 15.4 69.8 69.8 4.9 7.6 4.9 48.2 49.7 0.00 0.7020000 61.4
2021-04-08 10:30:00 70.1 11.9 14.8 70.1 70.1 4.4 5.8 4.2 82.5 67.2 0.00 0.7140000 61.4
2021-04-08 10:35:00 70.1 10.6 12.3 70.1 70.1 4.2 6.2 3.7 63.3 62.7 0.00 0.7270000 61.5
2021-04-08 10:40:00 70.2 10.6 12.3 70.2 70.2 3.8 5.1 3.6 44.1 74.4 0.00 0.7360000 61.5
2021-04-08 10:45:00 71.7 9.6 11.3 71.7 71.7 3.7 4.4 2.6 24.4 30.6 0.00 0.7470000 61.5
2021-04-08 10:50:00 71.1 11.3 14.5 71.1 71.1 4.0 6.0 3.8 59.9 56.5 0.00 0.7580000 61.6
2021-04-08 10:55:00 71.3 9.9 11.6 71.3 71.3 2.2 5.3 3.4 65.4 52.9 0.00 0.7680000 61.7
2021-04-08 11:00:00 71.5 11.2 14.5 71.5 71.5 3.5 5.8 3.2 56.2 41.0 0.00 0.7810000 61.7
2021-04-08 11:05:00 72.8 11.2 15.5 72.8 72.8 4.2 4.7 3.0 31.3 8.5 0.00 0.7890000 61.8
2021-04-08 11:10:00 72.5 8.3 8.7 72.5 72.5 4.2 4.7 3.0 6.7 355.4 0.00 0.7990000 61.9
2021-04-08 11:15:00 74.4 10.2 14.7 74.4 74.4 2.8 5.8 2.8 11.5 38.5 0.00 0.8080000 62.0
2021-04-08 11:20:00 74.3 7.8 8.5 74.3 74.3 2.2 3.8 2.5 109.3 56.3 0.00 0.8170000 62.1
2021-04-08 11:25:00 73.3 9.0 11.0 73.3 73.3 2.1 5.5 2.8 113.8 133.9 0.00 0.8260000 62.2
2021-04-08 11:30:00 75.7 9.1 13.1 75.7 75.7 2.4 3.1 1.6 146.0 134.5 0.00 0.8370000 62.3
2021-04-08 11:35:00 76.1 9.7 14.8 76.1 76.1 4.6 5.6 3.3 123.2 137.6 0.00 0.8440000 62.4
2021-04-08 11:40:00 74.3 7.6 8.1 74.3 74.3 3.3 4.4 2.7 95.2 132.2 0.00 0.8500000 62.5
2021-04-08 11:45:00 75.2 9.0 12.3 75.2 75.2 3.3 6.0 3.6 100.3 96.3 0.00 0.8550000 62.6
2021-04-08 11:50:00 74.7 8.9 11.7 74.7 74.7 4.7 6.9 4.5 73.9 93.2 0.00 0.8620000 62.8
2021-04-08 11:55:00 75.1 12.3 19.7 75.1 75.1 7.8 7.8 3.3 115.5 106.0 0.00 0.8680000 62.9
2021-04-08 12:00:00 75.5 11.3 17.8 75.5 75.5 4.4 8.0 4.5 133.0 104.2 0.00 0.8730000 63.1
2021-04-08 12:05:00 76.3 13.0 21.8 76.3 76.3 7.8 7.8 4.3 102.6 134.0 0.00 0.8790000 63.2
2021-04-08 12:10:00 76.5 10.2 16.3 76.5 76.5 4.9 8.0 4.8 77.1 94.6 0.00 0.8830000 63.4
2021-04-08 12:15:00 77.2 9.6 15.5 77.2 77.2 4.7 7.2 4.7 106.9 89.1 0.00 0.8860000 63.6
2021-04-08 12:20:00 77.8 9.5 15.6 77.8 77.8 4.6 8.5 5.1 137.5 101.7 0.00 0.8910000 63.8
2021-04-08 12:25:00 79.6 8.1 13.3 79.6 79.6 2.2 6.7 4.0 114.4 107.1 0.00 0.8950000 63.9
2021-04-08 12:30:00 80.0 4.7 1.8 80.0 80.0 1.9 5.5 2.7 298.7 157.7 0.00 0.9280000 64.1
2021-04-08 12:35:00 79.4 6.4 7.8 79.4 79.4 3.3 6.5 3.7 84.0 79.0 0.00 0.8350000 64.3
2021-04-08 12:40:00 80.2 7.9 13.3 80.2 80.2 2.4 5.3 3.0 117.7 104.0 0.00 0.8880000 64.5
2021-04-08 12:45:00 77.4 6.7 7.6 77.4 77.4 4.7 6.2 4.2 123.5 108.3 0.00 0.9260000 64.7
2021-04-08 12:50:00 79.7 4.4 0.1 79.7 79.7 4.7 6.2 4.0 59.7 91.8 0.00 0.9200000 64.9
2021-04-08 12:55:00 80.2 7.1 10.8 80.2 80.2 6.0 8.0 5.6 127.4 112.8 0.00 0.9240000 65.1
2021-04-08 13:00:00 80.1 7.4 11.8 80.1 80.1 7.1 8.1 5.5 129.9 127.1 0.00 0.8970000 65.4
2021-04-08 13:05:00 81.1 9.3 17.7 81.1 81.1 6.3 8.1 4.8 83.6 120.4 0.00 0.9090000 65.6
2021-04-08 13:10:00 80.8 7.4 12.1 80.8 80.8 4.7 9.4 7.1 78.1 86.7 0.00 0.9100000 65.8
2021-04-08 13:15:00 81.1 8.9 16.6 81.1 81.1 5.8 9.4 7.1 86.7 96.9 0.00 0.6860000 66.0
2021-04-08 13:20:00 80.1 8.4 14.6 80.1 80.1 8.7 9.4 6.3 120.8 119.9 0.00 0.8250000 66.2
2021-04-08 13:25:00 82.3 10.0 20.2 82.3 82.3 7.1 11.3 5.8 142.8 150.4 0.00 0.8880000 66.4
2021-04-08 13:30:00 82.2 7.7 14.1 82.2 82.2 10.5 13.0 8.5 162.0 148.7 0.00 0.9190000 66.6
2021-04-08 13:35:00 82.6 7.2 12.9 82.6 82.6 4.9 9.4 7.2 134.1 143.5 0.00 0.9040000 66.8
2021-04-08 13:40:00 83.9 7.2 13.9 83.9 83.9 7.8 10.8 6.0 111.8 140.1 0.00 0.9130000 67.0
2021-04-08 13:45:00 83.1 7.2 13.2 83.1 83.1 9.9 10.3 6.2 125.5 101.2 0.00 0.8190000 67.2
2021-04-08 13:50:00 82.5 5.4 6.4 82.5 82.5 15.6 16.5 9.1 188.5 151.5 0.00 0.7860000 67.4
2021-04-08 13:55:00 83.7 7.2 13.6 83.7 83.7 17.6 17.6 9.1 171.4 165.0 0.00 0.9140000 67.5
2021-04-08 14:00:00 82.9 6.6 11.0 82.9 82.9 9.4 16.9 10.1 161.9 152.6 0.00 0.9040000 67.7
2021-04-08 14:05:00 83.3 9.0 18.4 83.3 83.3 19.0 23.3 13.6 162.8 159.3 0.00 0.8920000 67.9
2021-04-08 14:10:00 83.6 6.8 12.5 83.6 83.6 4.2 19.2 9.9 170.1 165.2 0.00 0.8840000 68.1
2021-04-08 14:15:00 84.3 3.5 -1.9 84.3 84.3 7.4 16.2 10.1 179.2 167.7 0.00 0.8920000 68.2
2021-04-08 14:20:00 84.0 10.6 22.9 84.0 84.0 15.6 15.6 9.2 164.5 174.2 0.00 0.8980000 68.4
2021-04-08 14:25:00 84.2 4.6 3.9 84.2 84.2 10.1 22.1 14.3 232.2 199.9 0.00 0.9080000 68.6
2021-04-08 14:30:00 84.6 4.3 2.7 84.6 84.6 4.9 13.0 8.6 275.7 193.9 0.00 0.9080000 68.7
2021-04-08 14:35:00 84.8 7.7 16.1 84.8 84.8 10.1 20.5 12.7 174.7 181.7 0.00 0.7940000 68.9
2021-04-08 14:40:00 84.9 7.5 15.5 84.9 84.9 8.8 11.9 7.6 196.6 187.4 0.00 0.7320000 69.0
2021-04-08 14:45:00 85.2 7.2 14.7 85.2 85.2 8.5 17.6 12.4 205.3 205.5 0.00 0.8240000 69.2
2021-04-08 14:50:00 83.9 5.3 6.9 83.9 83.9 10.6 17.8 11.5 236.1 220.1 0.00 0.3180000 69.4
2021-04-08 14:55:00 82.6 6.7 11.2 82.6 82.6 11.3 12.6 9.3 187.0 218.7 0.00 0.6550000 69.5
2021-04-08 15:00:00 84.1 5.4 7.6 84.1 84.1 14.9 20.3 14.4 166.9 194.0 0.00 0.7440000 69.6
2021-04-08 15:05:00 83.2 8.2 16.4 83.2 83.2 6.3 16.4 11.2 180.1 181.1 0.00 0.6780000 69.7
2021-04-08 15:10:00 85.1 9.2 20.3 85.1 85.1 13.3 14.7 10.7 186.7 176.8 0.00 0.8230000 69.9
2021-04-08 15:15:00 85.5 7.7 16.6 85.5 85.5 13.9 16.9 9.7 176.8 164.4 0.00 0.8260000 70.0
2021-04-08 15:20:00 85.7 8.0 17.7 85.7 85.7 10.5 18.3 12.5 182.2 178.6 0.00 0.7790000 70.1
2021-04-08 15:25:00 86.0 6.9 14.5 86.0 86.0 11.2 19.0 13.8 225.2 204.3 0.00 0.7550000 70.2
2021-04-08 15:30:00 86.7 7.7 17.4 86.7 86.7 19.9 22.4 15.6 208.8 221.9 0.00 0.7480000 70.3
2021-04-08 15:35:00 85.5 5.7 9.7 85.5 85.5 11.2 18.9 13.2 242.5 219.5 0.00 0.7280000 70.4
2021-04-08 15:40:00 86.4 10.4 24.4 86.4 86.4 6.3 18.3 11.7 178.5 213.3 0.00 0.6920000 70.5
2021-04-08 15:45:00 85.5 7.6 16.2 85.5 85.5 6.9 11.0 7.1 225.1 191.9 0.00 0.4470000 70.6
2021-04-08 15:50:00 85.0 6.7 12.9 85.0 85.0 7.8 10.1 7.6 218.3 202.5 0.00 0.3850000 70.7
2021-04-08 15:55:00 85.7 11.2 25.5 85.7 85.7 1.9 10.5 4.4 326.5 235.3 0.00 0.4050000 70.8
2021-04-08 16:00:00 85.4 10.9 24.7 85.4 85.4 2.4 9.9 5.3 212.3 239.5 0.00 0.6540000 70.9
2021-04-08 16:05:00 87.0 4.8 7.2 87.0 87.0 4.2 5.6 3.2 222.0 153.8 0.00 0.5330000 71.0
2021-04-08 16:10:00 86.2 15.1 33.2 86.2 86.2 4.6 6.7 3.6 341.4 301.8 0.00 0.5750000 71.0
2021-04-08 16:15:00 85.6 7.1 14.9 85.6 85.6 7.4 10.3 6.1 241.3 287.0 0.00 0.6070000 71.1
2021-04-08 16:20:00 86.1 7.4 16.2 86.1 86.1 4.7 11.9 7.5 198.3 219.7 0.00 0.5880000 71.2
2021-04-08 16:25:00 87.2 10.0 23.9 87.2 87.2 8.1 8.8 5.2 242.2 214.6 0.00 0.5130000 71.2
2021-04-08 16:30:00 85.2 9.5 21.2 85.2 85.2 9.6 15.1 10.2 230.7 256.8 0.00 0.2840000 71.3
2021-04-08 16:35:00 82.3 18.1 34.8 82.3 82.3 10.5 12.8 10.3 280.7 294.1 0.00 0.4710000 71.4
2021-04-08 16:40:00 82.8 12.7 26.4 82.8 82.8 13.0 13.0 7.4 277.5 287.4 0.00 0.4070000 71.4
2021-04-08 16:45:00 81.5 16.6 31.9 81.5 81.5 11.0 14.7 10.6 279.4 289.6 0.00 0.2950000 71.5
2021-04-08 16:50:00 81.5 13.2 26.3 81.5 81.5 14.7 15.8 12.7 310.3 274.5 0.00 0.4100000 71.5
2021-04-08 16:55:00 82.2 16.2 31.8 82.2 82.2 15.8 27.1 19.0 291.3 284.3 0.00 0.4830000 71.6
2021-04-08 17:00:00 82.3 13.9 28.1 82.3 82.3 22.3 28.7 22.3 275.8 284.2 0.00 0.4510000 71.6
2021-04-08 17:05:00 81.0 13.6 26.5 81.0 81.0 23.7 29.6 22.6 280.7 286.0 0.00 0.4270000 71.7
2021-04-08 17:10:00 81.2 16.1 30.8 81.2 81.2 22.1 27.2 20.9 295.0 292.4 0.00 0.4210000 71.7
2021-04-08 17:15:00 81.7 14.9 29.4 81.7 81.7 17.1 25.6 19.3 271.0 283.1 0.00 0.4080000 71.8
2021-04-08 17:20:00 81.9 11.4 23.1 81.9 81.9 24.6 27.8 20.8 290.0 275.2 0.00 0.3850000 71.8
2021-04-08 17:25:00 81.4 13.7 27.1 81.4 81.4 20.8 25.3 20.8 271.8 291.4 0.00 0.3640000 71.8
2021-04-08 17:30:00 81.1 12.2 24.1 81.1 81.1 19.6 22.8 18.2 294.9 284.3 0.00 0.2650000 71.9
2021-04-08 17:35:00 81.0 15.7 30.1 81.0 81.0 15.8 24.8 19.7 316.7 294.5 0.00 0.2760000 71.9
2021-04-08 17:40:00 80.8 14.0 27.1 80.8 80.8 18.3 20.1 16.1 293.8 299.2 0.00 0.3480000 71.9
2021-04-08 17:45:00 80.9 14.0 27.2 80.9 80.9 15.3 22.1 16.8 279.3 293.8 0.00 0.2480000 71.9
2021-04-08 17:50:00 80.2 15.0 28.4 80.2 80.2 12.2 19.0 14.9 292.4 288.3 0.00 0.2410000 71.9
2021-04-08 17:55:00 79.3 16.7 30.2 79.3 79.3 11.9 18.5 13.5 289.7 295.4 0.00 0.1040000 71.8
2021-04-08 18:00:00 78.9 11.9 21.8 78.9 78.9 16.7 17.2 13.7 309.3 300.0 0.00 0.1290000 71.8
2021-04-08 18:05:00 79.1 16.7 30.1 79.1 79.1 11.7 18.3 13.1 315.5 305.5 0.00 0.1430000 71.7
2021-04-08 18:10:00 78.7 16.1 28.8 78.7 78.7 10.6 14.4 12.1 287.7 310.4 0.00 0.1630000 71.7
2021-04-08 18:15:00 79.8 17.1 31.2 79.8 79.8 7.8 13.3 11.1 305.7 306.5 0.00 0.1940000 71.7
2021-04-08 18:20:00 79.1 14.1 26.0 79.1 79.1 10.3 12.1 8.7 297.7 308.2 0.00 0.1800000 71.6
2021-04-08 18:25:00 79.1 12.0 22.1 79.1 79.1 8.3 10.3 7.7 291.7 295.9 0.00 0.1240000 71.6
2021-04-08 18:30:00 79.6 14.3 26.8 79.6 79.6 7.6 9.2 7.3 311.6 293.4 0.00 0.1350000 71.5
2021-04-08 18:35:00 79.8 15.6 29.0 79.8 79.8 6.7 10.3 7.5 319.0 304.5 0.00 0.1220000 71.5
2021-04-08 18:40:00 79.8 14.2 26.7 79.8 79.8 4.6 9.2 5.7 273.7 300.8 0.00 0.1040000 71.4
2021-04-08 18:45:00 80.5 11.8 22.7 80.5 80.5 3.5 5.1 4.0 239.4 258.7 0.00 0.0830000 71.4
2021-04-08 18:50:00 81.4 10.1 19.8 81.4 81.4 4.0 4.6 3.4 223.5 245.4 0.00 0.0590000 71.3
2021-04-08 18:55:00 81.7 10.3 20.6 81.7 81.7 9.9 11.3 8.0 239.0 230.8 0.00 0.0470000 71.2
2021-04-08 19:00:00 78.5 16.9 29.9 78.5 78.5 6.3 8.8 7.2 259.6 257.6 0.00 0.0190000 71.2
2021-04-08 19:05:00 77.1 13.9 24.1 77.1 77.1 6.0 7.8 6.3 265.5 262.3 0.00 0.0180000 71.1
2021-04-08 19:10:00 76.2 15.6 26.2 76.2 76.2 4.9 6.7 5.6 267.9 265.6 0.00 0.0130000 71.1
2021-04-08 19:15:00 75.8 17.3 28.2 75.8 75.8 4.2 5.1 4.5 265.2 268.2 0.00 0.0080000 71.0
2021-04-08 19:20:00 75.2 17.3 27.8 75.2 75.2 3.7 4.7 4.0 276.6 266.8 0.00 0.0050000 71.0
2021-04-08 19:25:00 75.4 13.3 21.6 75.4 75.4 2.8 3.5 3.1 239.2 245.9 0.00 0.0030000 70.9
2021-04-08 19:30:00 74.6 17.9 28.1 74.6 74.6 2.8 3.3 2.7 298.7 266.4 0.00 0.0020000 70.9
2021-04-08 19:35:00 74.1 13.8 21.5 74.1 74.1 3.1 3.5 2.7 252.0 253.8 0.00 0.0010000 70.8
2021-04-08 19:40:00 74.1 13.3 20.6 74.1 74.1 3.7 4.4 3.5 253.9 252.1 0.00 0.0000000 70.8
2021-04-08 19:45:00 73.7 13.2 20.1 73.7 73.7 4.4 5.3 4.0 244.0 245.0 0.00 0.0000000 70.7
2021-04-08 19:50:00 73.4 12.1 17.8 73.4 73.4 4.6 4.7 4.1 231.8 242.3 0.00 0.0000000 70.6
2021-04-08 19:55:00 74.3 11.3 17.1 74.3 74.3 6.7 9.4 6.2 244.8 238.0 0.00 0.0000000 70.6
2021-04-08 20:00:00 75.7 10.8 17.0 75.7 75.7 8.0 8.5 7.4 235.5 237.3 0.00 0.0000000 70.5
2021-04-08 20:05:00 76.2 10.8 17.3 76.2 76.2 9.9 9.9 8.0 253.2 242.5 0.00 0.0000000 70.4
2021-04-08 20:10:00 75.6 12.6 20.4 75.6 75.6 7.6 11.7 8.2 248.5 246.4 0.00 0.0000000 70.4
2021-04-08 20:15:00 74.0 16.0 25.0 74.0 74.0 6.3 9.2 7.1 262.2 250.5 0.00 0.0000000 70.3
2021-04-08 20:20:00 73.1 12.1 17.7 73.1 73.1 13.5 13.5 7.1 248.7 253.3 0.00 0.0000000 70.2
2021-04-08 20:25:00 75.0 13.2 21.2 75.0 75.0 9.6 13.7 10.5 264.6 252.0 0.00 0.0000000 70.2
2021-04-08 20:30:00 76.1 11.9 19.6 76.1 76.1 12.4 15.6 13.1 251.6 252.3 0.00 0.0000000 70.1
2021-04-08 20:35:00 76.5 11.6 19.4 76.5 76.5 12.1 16.2 13.5 246.4 249.0 0.00 0.0000000 70.0
2021-04-08 20:40:00 76.6 12.9 21.8 76.6 76.6 13.0 16.5 13.9 258.3 251.2 0.00 0.0000000 69.9
2021-04-08 20:45:00 76.2 11.4 18.6 76.2 76.2 15.8 16.4 14.3 243.0 249.4 0.00 0.0000000 69.9
2021-04-08 20:50:00 76.5 11.4 18.9 76.5 76.5 14.4 18.0 14.5 254.9 249.8 0.00 0.0000000 69.8
2021-04-08 20:55:00 76.2 11.2 18.3 76.2 76.2 15.1 18.3 14.4 242.0 246.7 0.00 0.0000000 69.8
2021-04-08 21:00:00 76.1 10.6 16.9 76.1 76.1 14.6 16.9 13.3 228.1 247.1 0.00 0.0000000 69.7
2021-04-08 21:05:00 75.9 10.6 16.6 75.9 75.9 11.5 14.6 11.9 241.6 243.5 0.00 0.0000000 69.6
2021-04-08 21:10:00 75.3 10.7 16.4 75.3 75.3 11.9 13.3 11.6 252.2 243.9 0.00 0.0000000 69.5
2021-04-08 21:15:00 74.5 11.3 17.0 74.5 74.5 10.6 14.2 11.1 244.8 244.4 0.00 0.0000000 69.5
2021-04-08 21:20:00 73.5 12.2 18.2 73.5 73.5 9.9 12.6 10.1 264.1 247.1 0.00 0.0000000 69.4
2021-04-08 21:25:00 71.3 14.0 19.6 71.3 71.3 7.4 9.7 8.2 250.7 250.0 0.00 0.0000000 69.3
2021-04-08 21:30:00 70.8 12.9 17.4 70.8 70.8 6.9 9.0 7.5 241.5 242.6 0.00 0.0000000 69.3
2021-04-08 21:35:00 71.1 12.4 16.6 71.1 71.1 7.1 8.8 7.3 238.6 239.0 0.00 0.0000000 69.2
2021-04-08 21:40:00 70.5 12.3 16.0 70.5 70.5 6.9 7.6 6.7 223.4 235.1 0.00 0.0000000 69.1
2021-04-08 21:45:00 70.8 12.3 16.2 70.8 70.8 6.0 8.5 7.0 222.9 227.9 0.00 0.0000000 69.1
2021-04-08 21:50:00 70.3 12.6 16.4 70.3 70.3 6.2 8.3 6.7 224.3 229.8 0.00 0.0000000 69.0
2021-04-08 21:55:00 69.9 12.8 16.5 69.9 69.9 6.2 7.2 6.2 240.1 235.9 0.00 0.0000000 69.0
2021-04-08 22:00:00 70.3 14.9 20.3 70.3 70.3 5.3 7.8 6.0 258.2 244.7 0.00 0.0000000 68.9
2021-04-08 22:05:00 67.7 15.6 19.3 67.7 67.7 3.8 5.6 4.5 260.9 250.5 0.00 0.0000000 68.8
2021-04-08 22:10:00 66.7 20.3 24.6 66.7 66.7 3.5 4.6 4.0 282.9 259.6 0.00 0.0000000 68.7
2021-04-08 22:15:00 65.3 17.6 20.2 65.3 65.3 3.1 5.3 3.8 256.7 261.3 0.00 0.0000000 68.7
2021-04-08 22:20:00 65.8 15.7 17.8 65.8 65.8 4.4 5.1 4.3 235.8 252.7 0.00 0.0000000 68.6
2021-04-08 22:25:00 66.4 18.0 21.6 66.4 66.4 5.3 5.6 5.0 261.9 252.1 0.00 0.0000000 68.6
2021-04-08 22:30:00 65.7 20.9 24.5 65.7 65.7 5.5 5.5 5.0 266.6 263.4 0.00 0.0000000 68.5
2021-04-08 22:35:00 64.8 21.5 24.5 64.8 64.8 6.2 6.5 5.8 259.2 267.8 0.00 0.0000000 68.5
2021-04-08 22:40:00 62.8 26.0 27.3 62.8 62.8 5.1 6.5 5.6 280.2 273.2 0.00 0.0000000 68.4
2021-04-08 22:45:00 62.5 27.1 28.1 62.5 62.5 5.3 6.2 5.5 273.5 277.6 0.00 0.0000000 68.3
2021-04-08 22:50:00 62.7 26.1 27.4 62.7 62.7 5.1 6.3 5.9 275.0 273.8 0.00 0.0000000 68.3
2021-04-08 22:55:00 63.8 23.6 25.9 63.8 63.8 5.6 6.9 6.0 275.2 279.0 0.00 0.0000000 68.2
2021-04-08 23:00:00 64.1 18.9 20.9 64.1 64.1 5.3 7.1 5.8 307.0 296.6 0.00 0.0000000 68.2
2021-04-08 23:05:00 63.3 22.0 23.7 63.3 63.3 5.1 6.2 5.2 319.1 308.6 0.00 0.0000000 68.1
2021-04-08 23:10:00 62.0 23.9 24.6 62.0 62.0 4.7 5.6 4.9 311.2 307.4 0.00 0.0000000 68.0
2021-04-08 23:15:00 61.2 23.8 23.9 61.2 61.2 6.5 6.5 5.4 296.6 302.7 0.00 0.0000000 68.0
2021-04-08 23:20:00 60.4 25.6 25.0 60.4 60.4 5.8 6.9 6.2 334.8 305.0 0.00 0.0000000 67.9
2021-04-08 23:25:00 58.4 21.2 18.8 58.4 58.4 6.5 7.2 6.5 329.5 332.6 0.00 0.0000000 67.8
2021-04-08 23:30:00 57.4 24.4 21.3 57.4 57.4 7.1 7.1 6.6 334.2 332.0 0.00 0.0000000 67.8
2021-04-08 23:35:00 58.7 22.3 20.3 58.7 58.7 9.7 12.6 9.3 319.8 334.8 0.00 0.0000000 67.7
2021-04-08 23:40:00 61.8 22.7 23.3 61.8 61.8 8.5 14.4 9.9 308.3 311.4 0.00 0.0000000 67.7
2021-04-08 23:45:00 61.7 24.8 25.3 61.7 61.7 10.1 11.0 9.4 311.5 307.4 0.00 0.0000000 67.6
2021-04-08 23:50:00 62.8 24.7 26.2 62.8 62.8 8.7 10.1 8.5 303.5 310.6 0.00 0.0000000 67.5
2021-04-08 23:55:00 66.2 23.8 28.1 66.2 66.2 11.5 14.6 11.6 296.4 301.6 0.00 0.0000000 67.5
2021-04-09 00:00:00 67.6 22.0 27.4 67.6 67.6 11.9 16.0 13.3 295.9 299.3 0.00 0.0000000 67.4

Data is courtesy of the NM Climate Center. DO NOT USE IN LEGAL PROCEEDINGS.